BIRD227 RJFU-RJTT
Flight info
| Callsign | BIRD227 |
|---|---|
| Flight time | 1h 35m |
| Altitude | 37000 |
| Route | OOITA Y23 ARTIC Y71 XAC |
| Aircraft | A20N/M-SDE2E3FGHIRWXY/LB1 |
Departure
| Time | 2026-04-12 09:36 |
|---|---|
| Airport | Nagasaki Airport (RJFU) |
Arrival
| Time | 2026-04-12 11:11 |
|---|---|
| Airport | Tokyo Haneda International Airport (RJTT) |
| Time | Latitude | Longitude | Altitude | Speed | Heading |
|---|---|---|---|---|---|
| 2026-04-12 08:57 | 32.91379 | 129.92188 | 13 ft | 0 kts | 47° |
| 2026-04-12 09:24 | 32.91366 | 129.92172 | 14 ft | 3 kts | 47° |
| 2026-04-12 09:24 | 32.91353 | 129.92155 | 13 ft | 3 kts | 47° |
| 2026-04-12 09:24 | 32.91340 | 129.92138 | 13 ft | 3 kts | 47° |
| 2026-04-12 09:25 | 32.91337 | 129.92133 | 12 ft | 0 kts | 47° |
| 2026-04-12 09:29 | 32.91340 | 129.92134 | 13 ft | 1 kts | 30° |
| 2026-04-12 09:29 | 32.91349 | 129.92128 | 14 ft | 2 kts | 320° |
| 2026-04-12 09:29 | 32.91351 | 129.92096 | 12 ft | 7 kts | 263° |
| 2026-04-12 09:30 | 32.91349 | 129.92019 | 13 ft | 10 kts | 282° |
| 2026-04-12 09:30 | 32.91379 | 129.91960 | 14 ft | 8 kts | 313° |
| 2026-04-12 09:30 | 32.91416 | 129.91918 | 14 ft | 7 kts | 317° |
| 2026-04-12 09:30 | 32.91456 | 129.91874 | 13 ft | 8 kts | 317° |
| 2026-04-12 09:31 | 32.91502 | 129.91826 | 13 ft | 11 kts | 319° |
| 2026-04-12 09:31 | 32.91577 | 129.91746 | 15 ft | 18 kts | 317° |
| 2026-04-12 09:31 | 32.91692 | 129.91622 | 12 ft | 26 kts | 319° |
| 2026-04-12 09:31 | 32.91828 | 129.91476 | 10 ft | 26 kts | 317° |
| 2026-04-12 09:32 | 32.91956 | 129.91339 | 9 ft | 24 kts | 318° |
| 2026-04-12 09:32 | 32.92069 | 129.91217 | 12 ft | 21 kts | 317° |
| 2026-04-12 09:32 | 32.92171 | 129.91110 | 13 ft | 18 kts | 319° |
| 2026-04-12 09:32 | 32.92256 | 129.91019 | 16 ft | 15 kts | 317° |
| 2026-04-12 09:33 | 32.92335 | 129.90933 | 13 ft | 16 kts | 317° |
| 2026-04-12 09:33 | 32.92420 | 129.90844 | 12 ft | 16 kts | 317° |
| 2026-04-12 09:33 | 32.92505 | 129.90754 | 12 ft | 17 kts | 319° |
| 2026-04-12 09:33 | 32.92597 | 129.90656 | 9 ft | 18 kts | 317° |
| 2026-04-12 09:34 | 32.92687 | 129.90562 | 11 ft | 16 kts | 317° |
| 2026-04-12 09:34 | 32.92763 | 129.90479 | 9 ft | 13 kts | 317° |
| 2026-04-12 09:34 | 32.92782 | 129.90406 | 9 ft | 7 kts | 256° |
| 2026-04-12 09:34 | 32.92770 | 129.90380 | 9 ft | 1 kts | 232° |
| 2026-04-12 09:35 | 32.92759 | 129.90365 | 9 ft | 8 kts | 228° |
| 2026-04-12 09:35 | 32.92701 | 129.90311 | 10 ft | 10 kts | 197° |
| 2026-04-12 09:35 | 32.92655 | 129.90320 | 11 ft | 5 kts | 147° |
| 2026-04-12 09:35 | 32.92651 | 129.90324 | 11 ft | 0 kts | 143° |
| 2026-04-12 09:36 | 32.92551 | 129.90431 | 14 ft | 61 kts | 137° |
| 2026-04-12 09:36 | 32.92008 | 129.91024 | 15 ft | 149 kts | 141° |
| 2026-04-12 09:36 | 32.91058 | 129.91893 | 658 ft | 182 kts | 146° |
| 2026-04-12 09:36 | 32.90055 | 129.92879 | 1821 ft | 194 kts | 140° |
| 2026-04-12 09:37 | 32.89007 | 129.93976 | 2847 ft | 206 kts | 139° |
| 2026-04-12 09:37 | 32.87922 | 129.95147 | 3957 ft | 213 kts | 138° |
| 2026-04-12 09:37 | 32.86799 | 129.96361 | 5002 ft | 227 kts | 137° |
| 2026-04-12 09:37 | 32.85571 | 129.97697 | 5967 ft | 248 kts | 136° |
| 2026-04-12 09:38 | 32.84682 | 129.98669 | 6311 ft | 273 kts | 136° |
| 2026-04-12 09:38 | 32.83287 | 130.00195 | 6658 ft | 272 kts | 136° |
| 2026-04-12 09:38 | 32.81883 | 130.01732 | 6848 ft | 275 kts | 136° |
| 2026-04-12 09:38 | 32.80472 | 130.03269 | 6932 ft | 274 kts | 136° |
| 2026-04-12 09:39 | 32.79064 | 130.04796 | 6976 ft | 274 kts | 136° |
| 2026-04-12 09:39 | 32.77659 | 130.06307 | 6992 ft | 273 kts | 137° |
| 2026-04-12 09:39 | 32.76243 | 130.07822 | 6999 ft | 273 kts | 137° |
| 2026-04-12 09:39 | 32.74830 | 130.09327 | 7089 ft | 271 kts | 137° |
| 2026-04-12 09:40 | 32.73410 | 130.10838 | 7577 ft | 274 kts | 137° |
| 2026-04-12 09:40 | 32.71990 | 130.12353 | 8666 ft | 275 kts | 138° |
| 2026-04-12 09:40 | 32.70551 | 130.13890 | 9937 ft | 280 kts | 139° |
| 2026-04-12 09:40 | 32.69067 | 130.15478 | 10822 ft | 298 kts | 140° |
| 2026-04-12 09:41 | 32.67613 | 130.17354 | 11512 ft | 323 kts | 122° |
| 2026-04-12 09:41 | 32.66984 | 130.19964 | 12241 ft | 349 kts | 93° |
| 2026-04-12 09:41 | 32.67469 | 130.22841 | 12982 ft | 370 kts | 65° |
| 2026-04-12 09:41 | 32.69026 | 130.25329 | 13750 ft | 385 kts | 39° |
| 2026-04-12 09:42 | 32.71375 | 130.26895 | 14422 ft | 392 kts | 13° |
| 2026-04-12 09:42 | 32.74088 | 130.27208 | 15120 ft | 394 kts | 350° |
| 2026-04-12 09:42 | 32.76838 | 130.26784 | 15904 ft | 402 kts | 346° |
| 2026-04-12 09:43 | 32.85324 | 130.26778 | 18918 ft | 420 kts | 2° |
| 2026-04-12 09:43 | 32.88236 | 130.27374 | 19552 ft | 429 kts | 4° |
| 2026-04-12 09:43 | 32.91197 | 130.28075 | 20203 ft | 438 kts | 5° |
| 2026-04-12 09:44 | 32.94199 | 130.28861 | 20843 ft | 447 kts | 8° |
| 2026-04-12 09:44 | 32.97094 | 130.30426 | 21468 ft | 469 kts | 30° |
| 2026-04-12 09:44 | 32.99470 | 130.33178 | 22078 ft | 488 kts | 50° |
| 2026-04-12 09:44 | 33.01033 | 130.36819 | 22683 ft | 501 kts | 71° |
| 2026-04-12 09:45 | 33.01687 | 130.40854 | 23314 ft | 499 kts | 83° |
| 2026-04-12 09:45 | 33.02008 | 130.44980 | 23806 ft | 505 kts | 86° |
| 2026-04-12 09:45 | 33.02279 | 130.49192 | 24216 ft | 514 kts | 86° |
| 2026-04-12 09:45 | 33.02581 | 130.53485 | 24635 ft | 522 kts | 85° |
| 2026-04-12 09:46 | 33.02961 | 130.57815 | 25048 ft | 530 kts | 83° |
| 2026-04-12 09:46 | 33.03480 | 130.62202 | 25483 ft | 537 kts | 80° |
| 2026-04-12 09:46 | 33.04153 | 130.66609 | 25907 ft | 544 kts | 78° |
| 2026-04-12 09:46 | 33.04897 | 130.71047 | 26340 ft | 550 kts | 77° |
| 2026-04-12 09:47 | 33.05680 | 130.75538 | 26773 ft | 553 kts | 77° |
| 2026-04-12 09:47 | 33.06472 | 130.80014 | 27217 ft | 550 kts | 76° |
| 2026-04-12 09:47 | 33.07263 | 130.84465 | 27673 ft | 549 kts | 76° |
| 2026-04-12 09:47 | 33.08044 | 130.88875 | 28114 ft | 550 kts | 76° |
| 2026-04-12 09:48 | 33.08838 | 130.93353 | 28575 ft | 553 kts | 76° |
| 2026-04-12 09:48 | 33.09631 | 130.97835 | 29047 ft | 556 kts | 76° |
| 2026-04-12 09:48 | 33.10426 | 131.02366 | 29534 ft | 557 kts | 75° |
| 2026-04-12 09:48 | 33.11215 | 131.06882 | 30010 ft | 557 kts | 75° |
| 2026-04-12 09:49 | 33.11999 | 131.11408 | 30441 ft | 559 kts | 75° |
| 2026-04-12 09:49 | 33.12789 | 131.15966 | 30887 ft | 562 kts | 75° |
| 2026-04-12 09:49 | 33.13577 | 131.20522 | 31316 ft | 564 kts | 75° |
| 2026-04-12 09:49 | 33.14371 | 131.25128 | 31751 ft | 564 kts | 75° |
| 2026-04-12 09:50 | 33.15155 | 131.29686 | 32192 ft | 562 kts | 75° |
| 2026-04-12 09:50 | 33.15940 | 131.34267 | 32633 ft | 561 kts | 75° |
| 2026-04-12 09:50 | 33.16719 | 131.38837 | 33108 ft | 562 kts | 75° |
| 2026-04-12 09:50 | 33.17494 | 131.43409 | 33601 ft | 560 kts | 74° |
| 2026-04-12 09:51 | 33.18263 | 131.47965 | 34108 ft | 560 kts | 74° |
| 2026-04-12 09:51 | 33.19033 | 131.52527 | 34560 ft | 560 kts | 74° |
| 2026-04-12 09:51 | 33.19795 | 131.57033 | 35014 ft | 560 kts | 74° |
| 2026-04-12 09:51 | 33.20560 | 131.61573 | 35479 ft | 559 kts | 74° |
| 2026-04-12 09:52 | 33.21331 | 131.66118 | 35968 ft | 557 kts | 72° |
| 2026-04-12 09:52 | 33.22386 | 131.70549 | 36451 ft | 550 kts | 65° |
| 2026-04-12 09:52 | 33.23668 | 131.74855 | 36774 ft | 550 kts | 62° |
| 2026-04-12 09:52 | 33.25036 | 131.79121 | 36912 ft | 552 kts | 62° |
| 2026-04-12 09:53 | 33.26451 | 131.83391 | 36968 ft | 550 kts | 61° |
| 2026-04-12 09:53 | 33.29295 | 131.91826 | 37016 ft | 543 kts | 60° |
| 2026-04-12 09:54 | 33.32132 | 132.00175 | 37017 ft | 542 kts | 60° |
| 2026-04-12 09:54 | 33.34980 | 132.08555 | 37019 ft | 544 kts | 60° |
| 2026-04-12 09:55 | 33.37818 | 132.16942 | 37018 ft | 543 kts | 60° |
| 2026-04-12 09:55 | 33.40636 | 132.25315 | 37023 ft | 542 kts | 60° |
| 2026-04-12 09:56 | 33.43419 | 132.33625 | 37027 ft | 542 kts | 60° |
| 2026-04-12 09:56 | 33.46244 | 132.42074 | 37034 ft | 543 kts | 60° |
| 2026-04-12 09:57 | 33.49041 | 132.50465 | 37040 ft | 542 kts | 61° |
| 2026-04-12 09:57 | 33.51832 | 132.58864 | 37044 ft | 542 kts | 61° |
| 2026-04-12 09:58 | 33.54596 | 132.67199 | 37046 ft | 541 kts | 61° |
| 2026-04-12 09:58 | 33.57367 | 132.75587 | 37045 ft | 541 kts | 61° |
| 2026-04-12 09:59 | 33.60134 | 132.83982 | 37054 ft | 542 kts | 61° |
| 2026-04-12 09:59 | 33.62901 | 132.92395 | 37068 ft | 542 kts | 61° |
| 2026-04-12 10:00 | 33.65347 | 133.00999 | 37063 ft | 543 kts | 66° |
| 2026-04-12 10:00 | 33.67523 | 133.09691 | 37056 ft | 545 kts | 67° |
| 2026-04-12 10:01 | 33.69643 | 133.18458 | 37052 ft | 548 kts | 67° |
| 2026-04-12 10:01 | 33.71733 | 133.27190 | 37075 ft | 548 kts | 67° |
| 2026-04-12 10:02 | 33.73825 | 133.35989 | 37080 ft | 547 kts | 67° |
| 2026-04-12 10:02 | 33.75911 | 133.44760 | 37063 ft | 547 kts | 68° |
| 2026-04-12 10:03 | 33.78009 | 133.53618 | 37089 ft | 551 kts | 67° |
| 2026-04-12 10:03 | 33.80103 | 133.62452 | 37105 ft | 548 kts | 68° |
| 2026-04-12 10:04 | 33.82188 | 133.71292 | 37114 ft | 548 kts | 68° |
| 2026-04-12 10:04 | 33.84239 | 133.80018 | 37093 ft | 546 kts | 68° |
| 2026-04-12 10:05 | 33.86317 | 133.88862 | 37092 ft | 549 kts | 68° |
| 2026-04-12 10:05 | 33.88384 | 133.97693 | 37083 ft | 547 kts | 67° |
| 2026-04-12 10:06 | 33.90441 | 134.06523 | 37062 ft | 550 kts | 68° |
| 2026-04-12 10:06 | 33.92504 | 134.15413 | 37065 ft | 549 kts | 68° |
| 2026-04-12 10:07 | 33.94547 | 134.24271 | 37103 ft | 551 kts | 68° |
| 2026-04-12 10:07 | 33.96580 | 134.33150 | 37082 ft | 547 kts | 68° |
| 2026-04-12 10:08 | 33.98614 | 134.41983 | 37035 ft | 548 kts | 68° |
| 2026-04-12 10:08 | 34.00653 | 134.50858 | 37019 ft | 550 kts | 68° |
| 2026-04-12 10:09 | 34.02690 | 134.59780 | 37021 ft | 552 kts | 68° |
| 2026-04-12 10:09 | 34.04713 | 134.68695 | 37023 ft | 551 kts | 68° |
| 2026-04-12 10:10 | 34.06731 | 134.77629 | 37030 ft | 552 kts | 68° |
| 2026-04-12 10:10 | 34.08742 | 134.86568 | 37040 ft | 554 kts | 69° |
| 2026-04-12 10:11 | 34.10751 | 134.95547 | 37044 ft | 553 kts | 69° |
| 2026-04-12 10:11 | 34.12755 | 135.04512 | 37050 ft | 553 kts | 69° |
| 2026-04-12 10:12 | 34.14746 | 135.13421 | 37038 ft | 554 kts | 69° |
| 2026-04-12 10:12 | 34.16747 | 135.22415 | 37038 ft | 555 kts | 69° |
| 2026-04-12 10:13 | 34.18752 | 135.31471 | 37034 ft | 554 kts | 69° |
| 2026-04-12 10:13 | 34.20725 | 135.40411 | 37040 ft | 554 kts | 69° |
| 2026-04-12 10:14 | 34.22705 | 135.49429 | 37044 ft | 555 kts | 69° |
| 2026-04-12 10:14 | 34.24674 | 135.58445 | 37059 ft | 555 kts | 69° |
| 2026-04-12 10:15 | 34.26641 | 135.67479 | 37055 ft | 556 kts | 69° |
| 2026-04-12 10:15 | 34.28595 | 135.76495 | 37049 ft | 555 kts | 69° |
| 2026-04-12 10:16 | 34.30552 | 135.85546 | 37074 ft | 556 kts | 69° |
| 2026-04-12 10:16 | 34.32501 | 135.94600 | 37085 ft | 557 kts | 69° |
| 2026-04-12 10:17 | 34.34439 | 136.03670 | 37062 ft | 555 kts | 69° |
| 2026-04-12 10:17 | 34.36355 | 136.12703 | 37024 ft | 554 kts | 69° |
| 2026-04-12 10:18 | 34.38285 | 136.21767 | 37006 ft | 557 kts | 69° |
| 2026-04-12 10:18 | 34.40218 | 136.30851 | 37034 ft | 560 kts | 69° |
| 2026-04-12 10:19 | 34.42152 | 136.39978 | 37039 ft | 559 kts | 69° |
| 2026-04-12 10:19 | 34.44063 | 136.49091 | 37024 ft | 556 kts | 69° |
| 2026-04-12 10:20 | 34.45971 | 136.58196 | 37027 ft | 559 kts | 69° |
| 2026-04-12 10:20 | 34.47868 | 136.67275 | 37031 ft | 559 kts | 70° |
| 2026-04-12 10:21 | 34.49756 | 136.76388 | 37027 ft | 558 kts | 70° |
| 2026-04-12 10:21 | 34.51645 | 136.85541 | 37031 ft | 558 kts | 70° |
| 2026-04-12 10:22 | 34.53381 | 136.94747 | 37024 ft | 564 kts | 78° |
| 2026-04-12 10:22 | 34.53901 | 137.04274 | 37029 ft | 568 kts | 85° |
| 2026-04-12 10:23 | 34.54064 | 137.13822 | 37035 ft | 568 kts | 86° |
| 2026-04-12 10:23 | 34.54124 | 137.21810 | 37029 ft | 568 kts | 86° |
| 2026-04-12 10:24 | 34.54167 | 137.31403 | 37025 ft | 569 kts | 87° |
| 2026-04-12 10:24 | 34.54199 | 137.41008 | 37021 ft | 569 kts | 87° |
| 2026-04-12 10:25 | 34.54227 | 137.50607 | 36893 ft | 571 kts | 87° |
| 2026-04-12 10:25 | 34.54243 | 137.55449 | 36569 ft | 573 kts | 87° |
| 2026-04-12 10:25 | 34.54259 | 137.60193 | 36253 ft | 558 kts | 87° |
| 2026-04-12 10:25 | 34.54274 | 137.64861 | 35934 ft | 548 kts | 87° |
| 2026-04-12 10:26 | 34.54291 | 137.69491 | 35625 ft | 554 kts | 88° |
| 2026-04-12 10:26 | 34.54310 | 137.74204 | 35315 ft | 559 kts | 88° |
| 2026-04-12 10:26 | 34.54326 | 137.78917 | 35009 ft | 560 kts | 88° |
| 2026-04-12 10:26 | 34.54339 | 137.83668 | 34706 ft | 559 kts | 88° |
| 2026-04-12 10:27 | 34.54347 | 137.88375 | 34409 ft | 558 kts | 88° |
| 2026-04-12 10:27 | 34.54351 | 137.93077 | 34114 ft | 559 kts | 89° |
| 2026-04-12 10:27 | 34.54351 | 137.97796 | 33782 ft | 560 kts | 89° |
| 2026-04-12 10:27 | 34.54346 | 138.02474 | 33447 ft | 559 kts | 89° |
| 2026-04-12 10:28 | 34.54337 | 138.07170 | 33117 ft | 556 kts | 89° |
| 2026-04-12 10:28 | 34.54328 | 138.11847 | 32784 ft | 553 kts | 89° |
| 2026-04-12 10:28 | 34.54316 | 138.16520 | 32459 ft | 555 kts | 89° |
| 2026-04-12 10:28 | 34.54304 | 138.21246 | 32138 ft | 566 kts | 89° |
| 2026-04-12 10:29 | 34.54290 | 138.26039 | 31827 ft | 566 kts | 89° |
| 2026-04-12 10:29 | 34.54272 | 138.30787 | 31464 ft | 562 kts | 89° |
| 2026-04-12 10:29 | 34.54304 | 138.35513 | 31025 ft | 559 kts | 82° |
| 2026-04-12 10:29 | 34.55108 | 138.40067 | 30620 ft | 546 kts | 65° |
| 2026-04-12 10:30 | 34.56538 | 138.44293 | 30208 ft | 539 kts | 59° |
| 2026-04-12 10:30 | 34.58135 | 138.48388 | 29730 ft | 535 kts | 57° |
| 2026-04-12 10:30 | 34.59797 | 138.52425 | 29244 ft | 534 kts | 57° |
| 2026-04-12 10:30 | 34.61485 | 138.56426 | 28776 ft | 534 kts | 57° |
| 2026-04-12 10:31 | 34.63196 | 138.60445 | 28300 ft | 534 kts | 57° |
| 2026-04-12 10:31 | 34.64895 | 138.64433 | 27834 ft | 533 kts | 57° |
| 2026-04-12 10:31 | 34.66595 | 138.68439 | 27379 ft | 532 kts | 58° |
| 2026-04-12 10:31 | 34.68279 | 138.72441 | 26936 ft | 532 kts | 58° |
| 2026-04-12 10:32 | 34.69923 | 138.76400 | 26509 ft | 534 kts | 60° |
| 2026-04-12 10:32 | 34.71108 | 138.80761 | 26068 ft | 541 kts | 77° |
| 2026-04-12 10:32 | 34.71530 | 138.85276 | 25637 ft | 528 kts | 85° |
| 2026-04-12 10:32 | 34.71667 | 138.89646 | 25204 ft | 505 kts | 89° |
| 2026-04-12 10:33 | 34.71674 | 138.93792 | 24724 ft | 489 kts | 90° |
| 2026-04-12 10:33 | 34.71624 | 138.97877 | 24249 ft | 479 kts | 91° |
| 2026-04-12 10:33 | 34.71580 | 139.01915 | 23776 ft | 477 kts | 91° |
| 2026-04-12 10:33 | 34.71541 | 139.05930 | 23246 ft | 471 kts | 91° |
| 2026-04-12 10:34 | 34.71501 | 139.09878 | 22685 ft | 466 kts | 91° |
| 2026-04-12 10:34 | 34.71463 | 139.13810 | 22137 ft | 462 kts | 91° |
| 2026-04-12 10:34 | 34.71425 | 139.17693 | 21603 ft | 458 kts | 91° |
| 2026-04-12 10:34 | 34.71390 | 139.21545 | 21076 ft | 451 kts | 90° |
| 2026-04-12 10:35 | 34.71356 | 139.25296 | 20557 ft | 437 kts | 90° |
| 2026-04-12 10:35 | 34.71324 | 139.28936 | 20044 ft | 425 kts | 90° |
| 2026-04-12 10:35 | 34.71294 | 139.32475 | 19545 ft | 414 kts | 90° |
| 2026-04-12 10:35 | 34.71265 | 139.35926 | 19057 ft | 404 kts | 90° |
| 2026-04-12 10:36 | 34.71587 | 139.39268 | 18585 ft | 392 kts | 71° |
| 2026-04-12 10:36 | 34.72470 | 139.42358 | 18073 ft | 382 kts | 64° |
| 2026-04-12 10:36 | 34.73507 | 139.45301 | 17518 ft | 374 kts | 61° |
| 2026-04-12 10:36 | 34.74609 | 139.48143 | 16977 ft | 367 kts | 59° |
| 2026-04-12 10:37 | 34.75743 | 139.50896 | 16444 ft | 361 kts | 58° |
| 2026-04-12 10:37 | 34.76877 | 139.53542 | 15936 ft | 355 kts | 58° |
| 2026-04-12 10:37 | 34.78032 | 139.56166 | 15427 ft | 350 kts | 57° |
| 2026-04-12 10:37 | 34.79189 | 139.58751 | 14928 ft | 345 kts | 57° |
| 2026-04-12 10:38 | 34.80341 | 139.61291 | 14420 ft | 341 kts | 57° |
| 2026-04-12 10:38 | 34.81484 | 139.63800 | 13935 ft | 337 kts | 57° |
| 2026-04-12 10:38 | 34.82704 | 139.66195 | 13443 ft | 326 kts | 42° |
| 2026-04-12 10:38 | 34.84357 | 139.67957 | 13135 ft | 307 kts | 29° |
| 2026-04-12 10:39 | 34.86102 | 139.69347 | 13063 ft | 298 kts | 24° |
| 2026-04-12 10:39 | 34.87923 | 139.70559 | 13033 ft | 291 kts | 20° |
| 2026-04-12 10:39 | 34.89732 | 139.71603 | 13025 ft | 288 kts | 17° |
| 2026-04-12 10:39 | 34.91591 | 139.72546 | 13015 ft | 290 kts | 14° |
| 2026-04-12 10:40 | 34.93467 | 139.73409 | 13010 ft | 288 kts | 12° |
| 2026-04-12 10:40 | 34.95353 | 139.74231 | 13010 ft | 290 kts | 15° |
| 2026-04-12 10:40 | 34.97173 | 139.75359 | 13009 ft | 296 kts | 24° |
| 2026-04-12 10:40 | 34.98897 | 139.76757 | 13011 ft | 299 kts | 29° |
| 2026-04-12 10:41 | 35.00550 | 139.78299 | 13008 ft | 301 kts | 32° |
| 2026-04-12 10:41 | 35.02164 | 139.79948 | 13013 ft | 302 kts | 35° |
| 2026-04-12 10:41 | 35.03735 | 139.81659 | 13001 ft | 303 kts | 36° |
| 2026-04-12 10:41 | 35.05276 | 139.83416 | 13003 ft | 304 kts | 37° |
| 2026-04-12 10:42 | 35.06801 | 139.85207 | 13005 ft | 304 kts | 38° |
| 2026-04-12 10:42 | 35.08246 | 139.87048 | 13004 ft | 309 kts | 51° |
| 2026-04-12 10:42 | 35.09050 | 139.89512 | 13040 ft | 320 kts | 83° |
| 2026-04-12 10:42 | 35.08802 | 139.92203 | 13046 ft | 322 kts | 111° |
| 2026-04-12 10:43 | 35.06862 | 139.97065 | 13013 ft | 317 kts | 123° |
| 2026-04-12 10:43 | 35.05715 | 139.99368 | 13014 ft | 318 kts | 126° |
| 2026-04-12 10:43 | 35.04534 | 140.01658 | 13005 ft | 319 kts | 123° |
| 2026-04-12 10:44 | 35.03527 | 140.04067 | 13006 ft | 319 kts | 116° |
| 2026-04-12 10:44 | 35.02686 | 140.06581 | 13004 ft | 320 kts | 112° |
| 2026-04-12 10:44 | 35.01969 | 140.09157 | 13006 ft | 322 kts | 109° |
| 2026-04-12 10:44 | 35.01344 | 140.11784 | 13001 ft | 322 kts | 106° |
| 2026-04-12 10:45 | 35.00800 | 140.14425 | 13004 ft | 322 kts | 102° |
| 2026-04-12 10:45 | 35.00475 | 140.17128 | 13009 ft | 322 kts | 95° |
| 2026-04-12 10:45 | 35.00352 | 140.19856 | 13013 ft | 323 kts | 90° |
| 2026-04-12 10:45 | 35.00359 | 140.22595 | 13009 ft | 322 kts | 87° |
| 2026-04-12 10:46 | 35.00455 | 140.25322 | 13014 ft | 322 kts | 85° |
| 2026-04-12 10:46 | 35.00618 | 140.28051 | 13017 ft | 322 kts | 83° |
| 2026-04-12 10:46 | 35.00976 | 140.30738 | 13020 ft | 321 kts | 73° |
| 2026-04-12 10:46 | 35.01585 | 140.33358 | 13019 ft | 320 kts | 69° |
| 2026-04-12 10:47 | 35.02329 | 140.35905 | 13019 ft | 319 kts | 65° |
| 2026-04-12 10:47 | 35.03160 | 140.38406 | 13017 ft | 317 kts | 63° |
| 2026-04-12 10:47 | 35.04051 | 140.40870 | 13024 ft | 318 kts | 61° |
| 2026-04-12 10:47 | 35.04987 | 140.43313 | 13022 ft | 318 kts | 60° |
| 2026-04-12 10:48 | 35.05951 | 140.45705 | 13022 ft | 316 kts | 55° |
| 2026-04-12 10:48 | 35.07383 | 140.47623 | 13020 ft | 301 kts | 23° |
| 2026-04-12 10:48 | 35.09278 | 140.48354 | 12750 ft | 276 kts | 351° |
| 2026-04-12 10:48 | 35.11045 | 140.47749 | 11949 ft | 264 kts | 320° |
| 2026-04-12 10:49 | 35.12496 | 140.46364 | 11299 ft | 265 kts | 315° |
| 2026-04-12 10:49 | 35.13890 | 140.44897 | 10765 ft | 264 kts | 315° |
| 2026-04-12 10:49 | 35.15274 | 140.43422 | 10238 ft | 263 kts | 315° |
| 2026-04-12 10:49 | 35.16656 | 140.41962 | 9688 ft | 263 kts | 316° |
| 2026-04-12 10:50 | 35.18050 | 140.40521 | 9140 ft | 262 kts | 317° |
| 2026-04-12 10:50 | 35.19452 | 140.39106 | 8598 ft | 261 kts | 318° |
| 2026-04-12 10:50 | 35.20874 | 140.37701 | 8282 ft | 262 kts | 319° |
| 2026-04-12 10:50 | 35.22295 | 140.36326 | 8135 ft | 258 kts | 320° |
| 2026-04-12 10:51 | 35.23694 | 140.34988 | 8079 ft | 259 kts | 320° |
| 2026-04-12 10:51 | 35.25119 | 140.33637 | 8036 ft | 259 kts | 320° |
| 2026-04-12 10:51 | 35.26547 | 140.32290 | 8027 ft | 259 kts | 320° |
| 2026-04-12 10:51 | 35.27975 | 140.30947 | 8023 ft | 258 kts | 320° |
| 2026-04-12 10:52 | 35.29396 | 140.29611 | 8015 ft | 259 kts | 320° |
| 2026-04-12 10:52 | 35.30824 | 140.28266 | 8008 ft | 259 kts | 320° |
| 2026-04-12 10:52 | 35.32248 | 140.26925 | 8006 ft | 257 kts | 320° |
| 2026-04-12 10:52 | 35.33669 | 140.25585 | 8005 ft | 258 kts | 320° |
| 2026-04-12 10:53 | 35.35093 | 140.24243 | 8008 ft | 257 kts | 321° |
| 2026-04-12 10:53 | 35.36682 | 140.23225 | 8010 ft | 261 kts | 336° |
| 2026-04-12 10:53 | 35.38423 | 140.22562 | 8003 ft | 263 kts | 342° |
| 2026-04-12 10:53 | 35.40204 | 140.22080 | 8001 ft | 263 kts | 345° |
| 2026-04-12 10:54 | 35.41093 | 140.21887 | 8003 ft | 263 kts | 346° |
| 2026-04-12 10:54 | 35.42894 | 140.21563 | 7996 ft | 264 kts | 348° |
| 2026-04-12 10:54 | 35.44715 | 140.21302 | 7996 ft | 263 kts | 349° |
| 2026-04-12 10:54 | 35.46482 | 140.21095 | 7985 ft | 244 kts | 350° |
| 2026-04-12 10:55 | 35.48092 | 140.20937 | 7984 ft | 220 kts | 350° |
| 2026-04-12 10:55 | 35.49591 | 140.20798 | 7986 ft | 215 kts | 349° |
| 2026-04-12 10:55 | 35.51047 | 140.20655 | 7984 ft | 205 kts | 349° |
| 2026-04-12 10:55 | 35.52464 | 140.20398 | 7845 ft | 206 kts | 341° |
| 2026-04-12 10:56 | 35.53810 | 140.19961 | 7634 ft | 192 kts | 335° |
| 2026-04-12 10:56 | 35.54936 | 140.19143 | 7115 ft | 186 kts | 322° |
| 2026-04-12 10:56 | 35.56004 | 140.18264 | 6583 ft | 185 kts | 323° |
| 2026-04-12 10:56 | 35.57088 | 140.17416 | 6059 ft | 184 kts | 326° |
| 2026-04-12 10:57 | 35.58202 | 140.16643 | 5531 ft | 183 kts | 331° |
| 2026-04-12 10:57 | 35.59382 | 140.16083 | 5232 ft | 180 kts | 340° |
| 2026-04-12 10:57 | 35.60586 | 140.15754 | 5094 ft | 180 kts | 347° |
| 2026-04-12 10:57 | 35.61849 | 140.15578 | 5027 ft | 180 kts | 352° |
| 2026-04-12 10:58 | 35.63089 | 140.15510 | 5002 ft | 182 kts | 354° |
| 2026-04-12 10:58 | 35.64374 | 140.15499 | 4989 ft | 183 kts | 356° |
| 2026-04-12 10:58 | 35.65639 | 140.15517 | 4987 ft | 182 kts | 356° |
| 2026-04-12 10:58 | 35.66887 | 140.15339 | 4994 ft | 179 kts | 343° |
| 2026-04-12 10:59 | 35.68074 | 140.14901 | 5003 ft | 178 kts | 338° |
| 2026-04-12 10:59 | 35.69216 | 140.14367 | 5002 ft | 174 kts | 335° |
| 2026-04-12 10:59 | 35.70325 | 140.13789 | 5007 ft | 175 kts | 333° |
| 2026-04-12 10:59 | 35.71436 | 140.13178 | 5006 ft | 174 kts | 332° |
| 2026-04-12 11:00 | 35.72531 | 140.12558 | 5009 ft | 174 kts | 332° |
| 2026-04-12 11:00 | 35.73625 | 140.11926 | 4998 ft | 174 kts | 331° |
| 2026-04-12 11:00 | 35.74719 | 140.11292 | 5009 ft | 173 kts | 332° |
| 2026-04-12 11:00 | 35.75813 | 140.10668 | 5006 ft | 173 kts | 332° |
| 2026-04-12 11:01 | 35.76904 | 140.10055 | 5003 ft | 172 kts | 332° |
| 2026-04-12 11:01 | 35.77994 | 140.09442 | 5006 ft | 173 kts | 332° |
| 2026-04-12 11:01 | 35.79086 | 140.08824 | 5003 ft | 173 kts | 331° |
| 2026-04-12 11:01 | 35.80178 | 140.08207 | 5003 ft | 172 kts | 331° |
| 2026-04-12 11:02 | 35.81268 | 140.07588 | 5003 ft | 173 kts | 331° |
| 2026-04-12 11:02 | 35.82336 | 140.06928 | 4998 ft | 170 kts | 321° |
| 2026-04-12 11:02 | 35.82805 | 140.05685 | 5010 ft | 173 kts | 268° |
| 2026-04-12 11:02 | 35.82311 | 140.04291 | 5021 ft | 181 kts | 247° |
| 2026-04-12 11:03 | 35.81751 | 140.02966 | 5004 ft | 150 kts | 250° |
| 2026-04-12 11:03 | 35.81342 | 140.01909 | 5001 ft | 137 kts | 252° |
| 2026-04-12 11:03 | 35.80944 | 140.00833 | 5002 ft | 138 kts | 252° |
| 2026-04-12 11:03 | 35.80544 | 139.99762 | 5002 ft | 138 kts | 252° |
| 2026-04-12 11:04 | 35.80142 | 139.98683 | 5007 ft | 138 kts | 252° |
| 2026-04-12 11:04 | 35.79655 | 139.97662 | 5006 ft | 143 kts | 237° |
| 2026-04-12 11:04 | 35.78895 | 139.96826 | 5009 ft | 148 kts | 226° |
| 2026-04-12 11:04 | 35.78064 | 139.96068 | 5011 ft | 149 kts | 224° |
| 2026-04-12 11:05 | 35.77207 | 139.95348 | 4969 ft | 152 kts | 221° |
| 2026-04-12 11:05 | 35.76344 | 139.94610 | 4799 ft | 149 kts | 224° |
| 2026-04-12 11:05 | 35.75496 | 139.93861 | 4604 ft | 150 kts | 224° |
| 2026-04-12 11:05 | 35.74643 | 139.93110 | 4430 ft | 151 kts | 224° |
| 2026-04-12 11:06 | 35.73787 | 139.92369 | 4232 ft | 151 kts | 223° |
| 2026-04-12 11:06 | 35.72925 | 139.91629 | 4078 ft | 150 kts | 223° |
| 2026-04-12 11:06 | 35.72064 | 139.90890 | 3994 ft | 152 kts | 223° |
| 2026-04-12 11:06 | 35.71196 | 139.90140 | 3860 ft | 155 kts | 223° |
| 2026-04-12 11:07 | 35.70312 | 139.89378 | 3516 ft | 156 kts | 223° |
| 2026-04-12 11:07 | 35.69437 | 139.88607 | 3092 ft | 154 kts | 224° |
| 2026-04-12 11:07 | 35.68578 | 139.87840 | 2665 ft | 154 kts | 222° |
| 2026-04-12 11:07 | 35.67712 | 139.87076 | 2338 ft | 154 kts | 221° |
| 2026-04-12 11:08 | 35.66827 | 139.86305 | 2025 ft | 154 kts | 220° |
| 2026-04-12 11:08 | 35.65949 | 139.85560 | 1754 ft | 153 kts | 219° |
| 2026-04-12 11:08 | 35.65079 | 139.84830 | 1538 ft | 151 kts | 218° |
| 2026-04-12 11:08 | 35.64215 | 139.84103 | 1383 ft | 150 kts | 218° |
| 2026-04-12 11:09 | 35.63353 | 139.83384 | 1275 ft | 149 kts | 217° |
| 2026-04-12 11:09 | 35.62490 | 139.82670 | 1182 ft | 150 kts | 217° |
| 2026-04-12 11:09 | 35.61657 | 139.81904 | 1089 ft | 149 kts | 220° |
| 2026-04-12 11:09 | 35.60836 | 139.81151 | 947 ft | 144 kts | 217° |
| 2026-04-12 11:10 | 35.60034 | 139.80479 | 836 ft | 137 kts | 214° |
| 2026-04-12 11:10 | 35.59510 | 139.80048 | 754 ft | 138 kts | 214° |
| 2026-04-12 11:10 | 35.58720 | 139.79389 | 505 ft | 136 kts | 213° |
| 2026-04-12 11:10 | 35.57967 | 139.78733 | 302 ft | 132 kts | 212° |
| 2026-04-12 11:11 | 35.57226 | 139.78101 | 155 ft | 128 kts | 212° |
| 2026-04-12 11:11 | 35.56556 | 139.77532 | 29 ft | 104 kts | 211° |
| 2026-04-12 11:11 | 35.56064 | 139.77130 | 34 ft | 60 kts | 216° |
| 2026-04-12 11:11 | 35.55838 | 139.76900 | 27 ft | 33 kts | 227° |
| 2026-04-12 11:12 | 35.55768 | 139.76762 | 23 ft | 8 kts | 244° |
| 2026-04-12 11:12 | 35.55755 | 139.76720 | 26 ft | 3 kts | 259° |
| 2026-04-12 11:12 | 35.55755 | 139.76704 | 23 ft | 7 kts | 272° |
| 2026-04-12 11:12 | 35.55768 | 139.76665 | 26 ft | 2 kts | 296° |
| 2026-04-12 11:13 | 35.55770 | 139.76659 | 26 ft | 0 kts | 296° |
| 2026-04-12 11:13 | 35.55771 | 139.76655 | 26 ft | 5 kts | 296° |
| 2026-04-12 11:13 | 35.55768 | 139.76607 | 24 ft | 7 kts | 242° |
| 2026-04-12 11:13 | 35.55750 | 139.76580 | 23 ft | 2 kts | 229° |
| 2026-04-12 11:14 | 35.55748 | 139.76577 | 23 ft | 0 kts | 229° |
| 2026-04-12 11:14 | 35.55732 | 139.76555 | 24 ft | 10 kts | 228° |
| 2026-04-12 11:14 | 35.55653 | 139.76455 | 24 ft | 21 kts | 226° |
| 2026-04-12 11:14 | 35.55565 | 139.76344 | 23 ft | 15 kts | 227° |
| 2026-04-12 11:15 | 35.55498 | 139.76311 | 24 ft | 7 kts | 167° |
| 2026-04-12 11:15 | 35.55473 | 139.76332 | 25 ft | 4 kts | 131° |
| 2026-04-12 11:15 | 35.55460 | 139.76354 | 23 ft | 3 kts | 127° |
| 2026-04-12 11:15 | 35.55448 | 139.76373 | 25 ft | 3 kts | 127° |
| 2026-04-12 11:16 | 35.55438 | 139.76389 | 22 ft | 2 kts | 126° |
| 2026-04-12 11:16 | 35.55420 | 139.76422 | 24 ft | 6 kts | 123° |
| 2026-04-12 11:16 | 35.55415 | 139.76430 | 25 ft | 0 kts | 123° |
| 2026-04-12 11:18 | 35.55415 | 139.76431 | 25 ft | 0 kts | 123° |
| 2026-04-12 11:19 | 35.55376 | 139.76500 | 27 ft | 20 kts | 126° |
| 2026-04-12 11:19 | 35.55302 | 139.76626 | 23 ft | 9 kts | 125° |
| 2026-04-12 11:19 | 35.55281 | 139.76670 | 24 ft | 3 kts | 106° |
| 2026-04-12 11:19 | 35.55282 | 139.76704 | 24 ft | 7 kts | 77° |
| 2026-04-12 11:20 | 35.55308 | 139.76746 | 23 ft | 9 kts | 41° |
| 2026-04-12 11:20 | 35.55372 | 139.76799 | 23 ft | 14 kts | 34° |
| 2026-04-12 11:20 | 35.55421 | 139.76873 | 26 ft | 9 kts | 77° |
| 2026-04-12 11:20 | 35.55411 | 139.76933 | 23 ft | 6 kts | 123° |
| 2026-04-12 11:21 | 35.55370 | 139.76971 | 25 ft | 11 kts | 149° |
| 2026-04-12 11:21 | 35.55283 | 139.77033 | 24 ft | 18 kts | 150° |
| 2026-04-12 11:21 | 35.55156 | 139.77122 | 24 ft | 24 kts | 150° |
| 2026-04-12 11:21 | 35.55012 | 139.77226 | 25 ft | 22 kts | 150° |
| 2026-04-12 11:22 | 35.54897 | 139.77305 | 26 ft | 16 kts | 149° |
| 2026-04-12 11:22 | 35.54813 | 139.77365 | 27 ft | 12 kts | 150° |
| 2026-04-12 11:22 | 35.54739 | 139.77417 | 24 ft | 13 kts | 150° |
| 2026-04-12 11:22 | 35.54661 | 139.77471 | 23 ft | 13 kts | 150° |
| 2026-04-12 11:23 | 35.54581 | 139.77528 | 26 ft | 14 kts | 150° |
| 2026-04-12 11:23 | 35.54500 | 139.77590 | 23 ft | 13 kts | 134° |
| 2026-04-12 11:23 | 35.54511 | 139.77677 | 25 ft | 11 kts | 24° |
| 2026-04-12 11:23 | 35.54582 | 139.77658 | 25 ft | 11 kts | 331° |
| 2026-04-12 11:24 | 35.54650 | 139.77609 | 26 ft | 12 kts | 329° |
| 2026-04-12 11:24 | 35.54726 | 139.77554 | 25 ft | 13 kts | 329° |
| 2026-04-12 11:24 | 35.54809 | 139.77494 | 25 ft | 14 kts | 330° |
| 2026-04-12 11:24 | 35.54890 | 139.77465 | 25 ft | 9 kts | 15° |
| 2026-04-12 11:25 | 35.54925 | 139.77521 | 26 ft | 13 kts | 84° |
| 2026-04-12 11:25 | 35.54880 | 139.77646 | 23 ft | 20 kts | 130° |
| 2026-04-12 11:25 | 35.54763 | 139.77779 | 23 ft | 26 kts | 144° |
| 2026-04-12 11:25 | 35.54628 | 139.77914 | 26 ft | 22 kts | 139° |
| 2026-04-12 11:26 | 35.54545 | 139.78040 | 25 ft | 12 kts | 120° |
| 2026-04-12 11:26 | 35.54537 | 139.78093 | 23 ft | 4 kts | 84° |
| 2026-04-12 11:26 | 35.54549 | 139.78138 | 27 ft | 9 kts | 66° |
| 2026-04-12 11:26 | 35.54590 | 139.78224 | 24 ft | 12 kts | 54° |
| 2026-04-12 11:27 | 35.54634 | 139.78266 | 26 ft | 6 kts | 27° |
| 2026-04-12 11:27 | 35.54673 | 139.78288 | 26 ft | 7 kts | 22° |
| 2026-04-12 11:27 | 35.54718 | 139.78309 | 24 ft | 7 kts | 22° |
| 2026-04-12 11:27 | 35.54760 | 139.78330 | 25 ft | 5 kts | 22° |
| 2026-04-12 11:28 | 35.54763 | 139.78332 | 26 ft | 0 kts | 22° |